Time;durP1;ratioP1;P1;durP2;ratioP2;P2;SDS_P1;SDS_P2;PMS_P1;PMS_P2;Temp;Humidity;BMP_temperature;BMP_pressure;BME280_temperature;BME280_humidity;BME280_pressure;Samples;Min_cycle;Max_cycle;Signal;HPM_P1;HPM_P2
2021/07/08 00:41:56;;;;;;;2.33;1.90;;;22.60;99.90;;;;;;5021240;28;20844;-61
2021/07/08 00:44:22;;;;;;;3.23;2.50;;;22.60;99.90;;;;;;5005258;28;22071;-63
2021/07/08 00:46:48;;;;;;;3.30;2.57;;;22.60;99.90;;;;;;5023995;28;20439;-66
2021/07/08 00:49:14;;;;;;;2.70;2.50;;;22.60;99.90;;;;;;5006218;28;20192;-65
2021/07/08 00:51:40;;;;;;;2.50;2.30;;;22.40;99.90;;;;;;5020857;28;20649;-65
2021/07/08 00:54:06;;;;;;;4.00;2.50;;;22.50;99.90;;;;;;5018829;28;20471;-65
2021/07/08 00:56:34;;;;;;;2.53;2.33;;;22.60;99.90;;;;;;5002931;28;20193;-66
2021/07/08 00:59:05;;;;;;;2.90;2.27;;;22.60;99.90;;;;;;5003668;28;20192;-66
2021/07/08 01:01:32;;;;;;;2.13;2.03;;;22.60;99.90;;;;;;5021366;28;20508;-66
2021/07/08 01:03:58;;;;;;;3.20;2.00;;;22.60;99.90;;;;;;5021351;28;20440;-65
2021/07/08 01:06:26;;;;;;;3.27;1.80;;;22.60;99.90;;;;;;5020844;28;20441;-66
2021/07/08 01:08:51;;;;;;;2.10;1.87;;;22.60;99.90;;;;;;5022233;28;20489;-66
2021/07/08 01:11:17;;;;;;;2.03;1.80;;;22.50;99.90;;;;;;5003026;28;20443;-65
2021/07/08 01:13:43;;;;;;;2.80;2.60;;;22.50;99.90;;;;;;5021867;28;20275;-66
2021/07/08 01:16:09;;;;;;;3.50;2.73;;;22.50;99.90;;;;;;5023017;28;20674;-66
2021/07/08 01:18:34;;;;;;;5.50;2.50;;;22.30;99.90;;;;;;5023271;28;20212;-65
2021/07/08 01:21:19;;;;;;;1.80;1.70;;;21.90;99.90;;;;;;5022474;28;20192;-66
2021/07/08 01:23:44;;;;;;;3.10;1.80;;;22.10;99.90;;;;;;5021721;28;20189;-66
2021/07/08 01:26:10;;;;;;;2.60;2.00;;;22.20;99.90;;;;;;5022585;28;20423;-65
2021/07/08 01:28:36;;;;;;;2.10;1.90;;;22.10;99.90;;;;;;5007234;28;20219;-66
2021/07/08 01:31:02;;;;;;;2.40;2.20;;;22.20;99.90;;;;;;5005991;28;20435;-68
2021/07/08 01:33:27;;;;;;;2.60;1.90;;;22.20;99.90;;;;;;5021431;28;20216;-65
2021/07/08 01:35:53;;;;;;;1.97;1.83;;;22.20;99.90;;;;;;5020781;28;20239;-65
2021/07/08 01:38:19;;;;;;;3.13;2.13;;;22.30;99.90;;;;;;5018855;28;20742;-66
2021/07/08 01:40:44;;;;;;;2.23;2.03;;;22.40;99.90;;;;;;5022382;28;20338;-66
2021/07/08 01:43:10;;;;;;;4.33;2.10;;;22.50;99.90;;;;;;5021228;28;20736;-66
2021/07/08 01:45:36;;;;;;;2.17;1.87;;;22.40;99.90;;;;;;5023840;28;20687;-66
2021/07/08 01:48:07;;;;;;;3.03;1.93;;;22.10;99.90;;;;;;5005447;28;20939;-66
2021/07/08 01:50:33;;;;;;;4.50;2.67;;;21.80;99.90;;;;;;5021875;28;20197;-66
2021/07/08 01:52:59;;;;;;;2.33;2.13;;;21.90;99.90;;;;;;5003977;28;20451;-66
2021/07/08 01:55:24;;;;;;;7.47;2.60;;;21.90;99.90;;;;;;5006151;28;20776;-66
2021/07/08 01:57:53;;;;;;;4.00;2.10;;;22.00;99.90;;;;;;5003805;28;20215;-66
2021/07/08 02:00:20;;;;;;;3.33;2.00;;;22.10;99.90;;;;;;5019399;28;20211;-66
2021/07/08 02:02:46;;;;;;;2.23;2.03;;;22.10;99.90;;;;;;5024059;28;20435;-65
2021/07/08 02:08:36;;;;;;;4.40;2.07;;;21.80;99.90;;;;;;5024550;28;20195;-65
2021/07/08 02:11:06;;;;;;;2.70;2.03;;;21.90;99.90;;;;;;5025685;28;20450;-66
2021/07/08 02:13:33;;;;;;;2.60;1.93;;;21.90;99.90;;;;;;5021359;28;20462;-66
2021/07/08 02:16:00;;;;;;;3.30;2.07;;;21.90;99.90;;;;;;5026347;28;20506;-66
2021/07/08 02:18:25;;;;;;;4.30;2.63;;;21.90;99.90;;;;;;5024601;28;20503;-66
2021/07/08 02:20:51;;;;;;;2.50;1.90;;;21.80;99.90;;;;;;5026019;28;20447;-65
2021/07/08 02:23:17;;;;;;;2.23;2.00;;;21.70;99.90;;;;;;5008377;28;20219;-65
2021/07/08 02:25:42;;;;;;;2.60;2.40;;;21.50;99.90;;;;;;5009121;28;20196;-66
2021/07/08 02:28:09;;;;;;;2.80;2.37;;;21.70;99.90;;;;;;5023939;28;21057;-66
2021/07/08 02:30:35;;;;;;;1.97;1.83;;;21.70;99.90;;;;;;5024881;28;20184;-65
2021/07/08 02:33:01;;;;;;;3.67;2.00;;;21.80;99.90;;;;;;5025128;28;20447;-66
2021/07/08 02:35:27;;;;;;;5.07;2.03;;;21.80;99.90;;;;;;5007404;28;20439;-66
2021/07/08 02:37:54;;;;;;;2.17;2.03;;;21.90;99.90;;;;;;5025202;28;20212;-67
2021/07/08 02:40:24;;;;;;;2.70;2.00;;;22.00;99.90;;;;;;5024773;28;20938;-66
2021/07/08 02:42:55;;;;;;;2.30;1.97;;;22.10;99.90;;;;;;5025158;28;20768;-65
2021/07/08 02:45:26;;;;;;;2.07;1.90;;;21.90;99.90;;;;;;5025018;28;20467;-65
2021/07/08 02:47:53;;;;;;;2.73;2.33;;;21.80;99.90;;;;;;5004221;28;20962;-66
2021/07/08 02:50:21;;;;;;;2.33;2.13;;;21.80;99.90;;;;;;5019059;28;21011;-65
2021/07/08 02:52:48;;;;;;;5.10;2.50;;;21.80;99.90;;;;;;5023490;28;20454;-66
2021/07/08 02:55:14;;;;;;;4.13;2.20;;;22.00;99.90;;;;;;5024898;28;20436;-66
2021/07/08 02:57:40;;;;;;;2.13;1.93;;;21.50;99.90;;;;;;5006952;28;20467;-65
2021/07/08 03:00:09;;;;;;;2.23;2.00;;;21.50;99.90;;;;;;5024158;28;20446;-66
2021/07/08 03:02:36;;;;;;;2.40;2.20;;;21.50;99.90;;;;;;5024797;28;20239;-65
2021/07/08 03:05:03;;;;;;;4.17;1.93;;;21.70;99.90;;;;;;5023849;28;20811;-65
2021/07/08 03:07:28;;;;;;;2.63;2.27;;;21.70;99.90;;;;;;5023212;28;20485;-66
2021/07/08 03:09:54;;;;;;;2.80;1.70;;;21.80;99.90;;;;;;5008572;28;20451;-65
2021/07/08 03:12:20;;;;;;;5.10;2.13;;;21.80;99.90;;;;;;5026484;28;20303;-66
2021/07/08 03:14:45;;;;;;;4.37;2.23;;;21.90;99.90;;;;;;5025708;28;20189;-66
2021/07/08 03:17:11;;;;;;;2.40;2.20;;;21.70;99.90;;;;;;5022657;28;20204;-66
2021/07/08 03:19:39;;;;;;;3.30;2.50;;;21.50;99.90;;;;;;5023519;28;20193;-65
2021/07/08 03:22:05;;;;;;;3.27;2.97;;;21.50;99.90;;;;;;5004377;28;20243;-65
2021/07/08 03:24:31;;;;;;;3.50;2.60;;;21.30;99.90;;;;;;5008512;28;20443;-66
2021/07/08 03:26:56;;;;;;;2.57;2.37;;;21.10;99.90;;;;;;5024529;28;20192;-66
2021/07/08 03:29:22;;;;;;;2.33;2.13;;;21.00;99.90;;;;;;5021585;28;20590;-65
2021/07/08 03:31:48;;;;;;;4.23;2.30;;;21.30;99.90;;;;;;4991163;28;20601;-65
2021/07/08 03:34:13;;;;;;;2.67;2.47;;;21.40;99.90;;;;;;5024379;28;20255;-65
2021/07/08 03:36:48;;;;;;;4.83;2.93;;;21.30;99.90;;;;;;5022796;28;20251;-65
2021/07/08 03:39:14;;;;;;;2.93;2.63;;;21.40;99.90;;;;;;5023705;28;20201;-65
2021/07/08 03:41:40;;;;;;;4.20;2.67;;;21.40;99.90;;;;;;5007684;28;21039;-67
2021/07/08 03:44:06;;;;;;;6.13;2.20;;;21.60;99.90;;;;;;5024627;28;20276;-66
2021/07/08 03:46:47;;;;;;;2.40;2.07;;;21.60;99.90;;;;;;5023911;28;20419;-65
2021/07/08 03:49:12;;;;;;;3.07;2.80;;;21.60;99.90;;;;;;5025490;28;20447;-65
2021/07/08 03:51:40;;;;;;;3.23;2.20;;;21.60;99.90;;;;;;5009608;28;20468;-65
2021/07/08 03:54:06;;;;;;;3.23;2.27;;;21.60;99.90;;;;;;5025218;28;20276;-65
2021/07/08 03:56:34;;;;;;;8.90;2.53;;;21.70;99.90;;;;;;5022723;28;20457;-67
2021/07/08 03:59:00;;;;;;;2.50;2.30;;;21.70;99.90;;;;;;5004749;28;20581;-67
2021/07/08 04:01:26;;;;;;;5.10;3.13;;;21.70;99.90;;;;;;5004810;28;20537;-65
2021/07/08 04:03:52;;;;;;;2.93;2.63;;;21.60;99.90;;;;;;5022903;28;20193;-65
2021/07/08 04:06:18;;;;;;;2.60;2.40;;;21.60;99.90;;;;;;5022017;28;20195;-66
2021/07/08 04:08:44;;;;;;;3.83;2.50;;;21.60;99.90;;;;;;5022280;28;20825;-65
2021/07/08 04:11:10;;;;;;;3.03;2.70;;;21.50;99.90;;;;;;5024535;28;20526;-65
2021/07/08 04:13:35;;;;;;;3.97;3.20;;;21.50;99.90;;;;;;5021889;28;20615;-65
2021/07/08 04:16:01;;;;;;;7.17;2.90;;;21.50;99.90;;;;;;5023412;28;20185;-65
2021/07/08 04:18:27;;;;;;;7.10;2.40;;;21.50;99.90;;;;;;5023859;28;20193;-66
2021/07/08 04:20:52;;;;;;;4.27;2.37;;;21.60;99.90;;;;;;5025970;28;20200;-65
2021/07/08 04:23:19;;;;;;;3.07;2.50;;;21.40;99.90;;;;;;5022638;28;20215;-66
2021/07/08 04:25:50;;;;;;;2.50;2.30;;;21.20;99.90;;;;;;5021068;28;20189;-65
2021/07/08 04:28:16;;;;;;;4.27;2.40;;;21.20;99.90;;;;;;5023774;28;20511;-65
2021/07/08 04:30:43;;;;;;;2.70;2.30;;;21.00;99.90;;;;;;5025601;28;20485;-67
2021/07/08 04:33:09;;;;;;;2.30;2.10;;;21.20;99.90;;;;;;5022429;28;20283;-65
2021/07/08 04:35:38;;;;;;;3.97;2.37;;;21.10;99.90;;;;;;5005921;28;20530;-65
2021/07/08 04:38:06;;;;;;;4.23;2.70;;;21.20;99.90;;;;;;5021355;28;20176;-65
2021/07/08 04:40:33;;;;;;;5.60;2.80;;;21.30;99.90;;;;;;5024903;28;20446;-66
2021/07/08 04:42:59;;;;;;;2.80;2.47;;;21.30;99.90;;;;;;5005675;28;20458;-65
2021/07/08 04:45:25;;;;;;;3.70;2.60;;;21.20;99.90;;;;;;5023288;28;20439;-65
2021/07/08 04:47:51;;;;;;;2.87;2.67;;;21.40;99.90;;;;;;5020769;28;20235;-66
2021/07/08 04:50:19;;;;;;;5.90;2.70;;;21.30;99.90;;;;;;5021534;28;20537;-65
2021/07/08 04:52:46;;;;;;;4.00;2.97;;;21.20;99.90;;;;;;5022544;28;20451;-67
2021/07/08 04:55:13;;;;;;;4.40;2.60;;;21.30;99.90;;;;;;5025283;28;20472;-67
2021/07/08 04:57:50;;;;;;;3.13;2.90;;;21.30;99.90;;;;;;5024437;28;20431;-65
2021/07/08 05:00:21;;;;;;;3.03;2.73;;;21.20;99.90;;;;;;5022675;28;20442;-66
2021/07/08 05:02:48;;;;;;;2.63;2.43;;;21.30;99.90;;;;;;5020340;28;20537;-65
2021/07/08 05:05:14;;;;;;;2.60;2.40;;;21.40;99.90;;;;;;5006863;28;20819;-66
2021/07/08 05:07:40;;;;;;;3.17;2.80;;;21.40;99.90;;;;;;5023229;28;20922;-66
2021/07/08 05:10:09;;;;;;;7.53;2.97;;;21.50;99.90;;;;;;5018756;28;20443;-66
2021/07/08 05:12:35;;;;;;;3.13;2.53;;;21.50;99.90;;;;;;5020189;28;20204;-67
2021/07/08 05:15:06;;;;;;;2.93;2.60;;;21.40;99.90;;;;;;5020196;28;20871;-68
2021/07/08 05:17:31;;;;;;;4.90;3.40;;;21.60;99.90;;;;;;5006928;28;20432;-68
2021/07/08 05:19:57;;;;;;;4.20;2.80;;;21.70;99.90;;;;;;5005878;28;20484;-69
2021/07/08 05:22:23;;;;;;;2.37;2.17;;;21.60;99.90;;;;;;5021928;28;20217;-68
2021/07/08 05:24:49;;;;;;;3.83;2.70;;;21.60;99.90;;;;;;5007035;28;20188;-68
2021/07/08 05:27:16;;;;;;;3.77;2.77;;;21.70;99.90;;;;;;5007979;28;21064;-67
2021/07/08 05:29:46;;;;;;;2.93;2.57;;;21.60;99.90;;;;;;5022990;28;20841;-68
2021/07/08 05:32:15;;;;;;;4.87;2.93;;;21.60;99.90;;;;;;5021532;28;20455;-67
2021/07/08 05:34:42;;;;;;;3.37;2.53;;;21.60;99.90;;;;;;5023378;28;20431;-68
2021/07/08 05:37:08;;;;;;;3.03;2.83;;;21.60;99.90;;;;;;5023866;28;20942;-68
2021/07/08 05:39:34;;;;;;;4.17;2.87;;;21.70;99.90;;;;;;5023158;28;20462;-68
2021/07/08 05:41:59;;;;;;;3.80;2.27;;;21.70;99.90;;;;;;5025163;28;20478;-67
2021/07/08 05:44:25;;;;;;;3.13;2.83;;;21.70;99.90;;;;;;5024845;28;20200;-63
2021/07/08 05:46:51;;;;;;;3.90;2.73;;;21.70;99.90;;;;;;5010948;28;20192;-65
2021/07/08 05:49:17;;;;;;;4.00;3.03;;;21.80;99.90;;;;;;5026506;28;20200;-65
2021/07/08 05:51:42;;;;;;;3.70;2.73;;;21.70;99.90;;;;;;5026931;28;20215;-64
2021/07/08 05:54:08;;;;;;;3.47;2.83;;;21.80;99.90;;;;;;5027582;28;20200;-65
2021/07/08 05:56:34;;;;;;;6.00;3.13;;;21.90;99.90;;;;;;5027157;28;20195;-65
2021/07/08 05:59:00;;;;;;;3.33;2.60;;;21.70;99.90;;;;;;5025641;28;20192;-64
2021/07/08 06:01:25;;;;;;;3.00;2.43;;;21.80;99.90;;;;;;5026525;28;20692;-63
2021/07/08 06:03:51;;;;;;;2.73;2.50;;;21.70;99.90;;;;;;5025503;28;20188;-65
2021/07/08 06:06:17;;;;;;;5.13;2.53;;;21.70;99.90;;;;;;5025788;28;20188;-61
2021/07/08 06:08:44;;;;;;;4.40;2.60;;;21.90;99.90;;;;;;5026221;28;20243;-62
2021/07/08 06:11:10;;;;;;;3.40;2.40;;;21.80;99.90;;;;;;5002517;28;20188;-62
2021/07/08 06:13:36;;;;;;;11.47;10.27;;;21.80;99.90;;;;;;5025945;28;20439;-63
2021/07/08 06:16:02;;;;;;;6.53;4.73;;;21.50;99.90;;;;;;5020926;28;20184;-62
2021/07/08 06:18:28;;;;;;;5.13;3.20;;;21.50;99.90;;;;;;5023964;28;20863;-62
2021/07/08 06:20:54;;;;;;;4.10;2.60;;;21.40;99.90;;;;;;5010143;28;20180;-62
2021/07/08 06:23:21;;;;;;;3.50;2.97;;;21.80;99.90;;;;;;5006517;28;20473;-64
2021/07/08 06:25:47;;;;;;;7.50;2.70;;;21.90;99.90;;;;;;5009887;28;20196;-64
2021/07/08 06:31:35;;;;;;;3.23;2.93;;;22.00;99.90;;;;;;5016792;28;20473;-63
2021/07/08 06:34:00;;;;;;;3.03;2.53;;;22.10;99.90;;;;;;5008739;28;20443;-62
2021/07/08 06:36:26;;;;;;;8.37;3.00;;;22.30;99.90;;;;;;5025023;28;20188;-62
2021/07/08 06:38:52;;;;;;;2.97;2.77;;;22.40;99.90;;;;;;5025447;28;20192;-67
2021/07/08 06:41:18;;;;;;;5.03;3.10;;;22.10;99.90;;;;;;5009555;28;20208;-66
2021/07/08 06:43:44;;;;;;;4.57;2.80;;;21.80;99.90;;;;;;5024752;28;20633;-68
2021/07/08 06:46:15;;;;;;;3.20;2.90;;;22.00;99.90;;;;;;5006649;28;20844;-63
2021/07/08 06:48:40;;;;;;;4.50;2.90;;;22.10;99.90;;;;;;5007461;28;20471;-65
2021/07/08 06:51:06;;;;;;;3.40;3.03;;;22.20;99.90;;;;;;5022364;28;20449;-65
2021/07/08 06:53:31;;;;;;;20.57;5.53;;;22.20;99.90;;;;;;5019907;28;20283;-65
2021/07/08 06:55:57;;;;;;;24.00;5.27;;;22.20;99.90;;;;;;5024930;28;20200;-65
2021/07/08 06:58:23;;;;;;;42.37;7.73;;;22.30;99.90;;;;;;5021600;28;20540;-65
2021/07/08 07:00:48;;;;;;;63.80;11.27;;;22.30;99.90;;;;;;5019423;28;20912;-65
2021/07/08 07:03:17;;;;;;;80.70;15.10;;;22.30;99.90;;;;;;5006598;28;20228;-65
2021/07/08 07:05:43;;;;;;;137.07;19.30;;;22.30;99.90;;;;;;5022858;28;20207;-64
2021/07/08 07:08:09;;;;;;;134.33;18.07;;;22.30;99.90;;;;;;5022247;28;20467;-65
2021/07/08 07:10:34;;;;;;;32.40;9.73;;;22.40;99.90;;;;;;5026079;28;20176;-65
2021/07/08 07:13:02;;;;;;;32.77;7.17;;;22.30;99.90;;;;;;4990186;28;20212;-65
2021/07/08 07:15:29;;;;;;;8.97;3.30;;;22.50;99.90;;;;;;5010017;28;20206;-67
2021/07/08 07:17:57;;;;;;;28.03;5.30;;;22.60;99.90;;;;;;5021995;28;20518;-67
2021/07/08 07:20:22;;;;;;;53.07;14.93;;;22.60;99.90;;;;;;5009384;28;20447;-66
2021/07/08 07:22:48;;;;;;;23.20;9.03;;;22.70;99.90;;;;;;5022284;28;20446;-65
2021/07/08 07:25:17;;;;;;;15.40;4.47;;;22.90;99.90;;;;;;5023128;28;20959;-65
2021/07/08 07:27:45;;;;;;;18.50;6.93;;;23.00;99.90;;;;;;5024726;28;20490;-65
2021/07/08 07:30:11;;;;;;;12.17;5.87;;;23.00;99.90;;;;;;5024388;28;20431;-66
2021/07/08 07:32:37;;;;;;;7.63;6.20;;;22.90;99.90;;;;;;5007980;28;20439;-64
2021/07/08 07:35:04;;;;;;;7.60;3.07;;;23.10;99.90;;;;;;5022982;28;20453;-65
2021/07/08 07:37:30;;;;;;;9.33;4.63;;;23.20;99.90;;;;;;5025071;28;20188;-65
2021/07/08 07:39:56;;;;;;;10.67;4.30;;;23.20;99.90;;;;;;5006121;28;20458;-64
2021/07/08 07:42:22;;;;;;;7.90;4.50;;;23.30;99.90;;;;;;4990072;28;20459;-65
2021/07/08 07:44:48;;;;;;;7.90;4.80;;;23.50;99.90;;;;;;5019097;28;20552;-65
2021/07/08 07:47:18;;;;;;;13.40;10.37;;;23.70;99.90;;;;;;5024714;28;20532;-66
2021/07/08 07:49:44;;;;;;;7.00;4.53;;;23.80;99.90;;;;;;5022369;28;20434;-66
2021/07/08 07:52:13;;;;;;;14.87;6.23;;;24.00;99.90;;;;;;5020317;28;20458;-66
2021/07/08 07:54:39;;;;;;;4.03;3.63;;;23.90;99.90;;;;;;5024849;28;20419;-62
2021/07/08 07:57:06;;;;;;;13.97;5.77;;;23.90;99.90;;;;;;5003143;28;20492;-66
2021/07/08 07:59:40;;;;;;;8.43;3.40;;;24.10;99.90;;;;;;5006505;28;20438;-68
2021/07/08 08:02:10;;;;;;;5.83;2.70;;;23.90;99.90;;;;;;5005202;28;20792;-68
2021/07/08 08:04:54;;;;;;;14.00;7.43;;;23.90;99.90;;;;;;5020601;28;20826;-61
2021/07/08 08:10:05;;;;;;;12.37;3.70;;;24.10;99.90;;;;;;5021001;28;20542;-67
2021/07/08 08:12:30;;;;;;;46.47;10.90;;;24.00;99.90;;;;;;5023139;28;20462;-67
2021/07/08 08:14:56;;;;;;;4.60;2.73;;;24.20;99.90;;;;;;5005209;28;20928;-67
2021/07/08 08:17:22;;;;;;;18.53;4.97;;;24.00;99.90;;;;;;5024561;28;20242;-61
2021/07/08 08:19:47;;;;;;;14.60;3.33;;;23.80;99.90;;;;;;5025487;28;20451;-67
2021/07/08 08:22:14;;;;;;;5.00;2.73;;;23.70;99.90;;;;;;5023748;28;20215;-63
2021/07/08 08:24:40;;;;;;;4.13;2.80;;;23.30;99.90;;;;;;5022287;28;20650;-64
2021/07/08 08:27:06;;;;;;;4.60;2.90;;;23.10;99.90;;;;;;5022405;28;20427;-64
2021/07/08 08:29:33;;;;;;;4.13;2.80;;;23.20;99.90;;;;;;5023393;28;20530;-63
2021/07/08 08:31:59;;;;;;;4.00;2.80;;;23.20;99.90;;;;;;5022734;28;20467;-63
2021/07/08 08:34:24;;;;;;;4.73;2.63;;;23.10;99.90;;;;;;5021860;28;20552;-63
2021/07/08 08:36:50;;;;;;;5.93;2.90;;;23.20;99.90;;;;;;5021795;28;20192;-63
2021/07/08 08:39:16;;;;;;;5.00;2.50;;;23.20;99.90;;;;;;5004916;28;20738;-63
2021/07/08 08:41:42;;;;;;;4.00;2.93;;;23.10;99.90;;;;;;5020363;28;20709;-64
2021/07/08 08:44:07;;;;;;;3.13;2.83;;;23.00;99.90;;;;;;5007725;28;20825;-63
2021/07/08 08:46:35;;;;;;;3.20;2.90;;;22.80;99.90;;;;;;5022095;28;20343;-63
2021/07/08 08:49:03;;;;;;;3.40;3.10;;;23.00;99.90;;;;;;5021137;28;20223;-63
2021/07/08 08:51:29;;;;;;;4.00;3.20;;;22.90;99.90;;;;;;5037183;22;20419;-68
2021/07/08 08:53:55;;;;;;;3.33;3.03;;;22.90;99.90;;;;;;4953257;28;20507;-68
2021/07/08 08:56:20;;;;;;;5.87;3.00;;;22.80;99.90;;;;;;4984906;28;20425;-62
2021/07/08 08:58:46;;;;;;;3.73;3.27;;;22.60;99.90;;;;;;4980844;28;20288;-61
2021/07/08 09:01:15;;;;;;;6.40;3.20;;;;;;;;;;4985064;28;20241;-61
2021/07/08 09:03:42;;;;;;;4.83;3.27;;;22.10;99.90;;;;;;4979826;28;20192;-61
2021/07/08 09:06:10;;;;;;;4.00;3.17;;;21.90;99.90;;;;;;4965192;28;20460;-61
2021/07/08 09:08:38;;;;;;;4.17;2.90;;;21.90;99.90;;;;;;4982474;28;21015;-61
2021/07/08 09:11:30;;;;;;;4.60;3.67;;;22.00;99.90;;;;;;4983339;28;20452;-62
2021/07/08 09:14:01;;;;;;;4.30;3.10;;;21.90;99.90;;;;;;4969144;23;20497;-65
2021/07/08 09:16:33;;;;;;;8.90;3.70;;;21.80;99.90;;;;;;4987355;28;20453;-64
2021/07/08 09:19:22;;;;;;;3.50;3.20;;;21.80;99.90;;;;;;4981780;28;20453;-64
2021/07/08 09:22:01;;;;;;;10.03;4.23;;;21.70;99.90;;;;;;4980065;28;20464;-65
2021/07/08 09:24:34;;;;;;;4.07;3.77;;;21.70;99.90;;;;;;4979150;28;20569;-63
2021/07/08 09:27:09;;;;;;;4.70;4.13;;;21.40;99.90;;;;;;4978118;28;20433;-62
2021/07/08 09:29:40;;;;;;;9.27;4.00;;;21.30;99.90;;;;;;4974465;28;20441;-62
2021/07/08 09:32:14;;;;;;;4.20;3.87;;;21.30;99.90;;;;;;4977975;28;20479;-62
2021/07/08 09:34:41;;;;;;;4.43;4.03;;;21.40;99.90;;;;;;4979785;28;20483;-63
2021/07/08 09:37:13;;;;;;;4.10;3.67;;;21.40;99.90;;;;;;4977356;28;20428;-62
2021/07/08 09:39:50;;;;;;;5.80;3.77;;;21.20;99.90;;;;;;4964610;28;20803;-61
2021/07/08 09:42:37;;;;;;;3.67;3.37;;;21.20;99.90;;;;;;4975353;28;21043;-62
2021/07/08 09:45:11;;;;;;;6.40;4.30;;;21.20;99.90;;;;;;4974968;28;20570;-62
2021/07/08 09:47:40;;;;;;;5.53;4.30;;;21.20;99.90;;;;;;4977267;28;20469;-62
2021/07/08 09:50:07;;;;;;;4.70;3.93;;;21.00;99.90;;;;;;4978177;28;20522;-61
2021/07/08 09:52:33;;;;;;;4.00;3.63;;;21.10;99.90;;;;;;4978418;28;20453;-61
2021/07/08 09:56:01;;;;;;;4.27;3.87;;;21.00;99.90;;;;;;4988488;28;20442;-65
2021/07/08 09:58:04;;;;;;;5.27;4.23;;;20.90;99.90;;;;;;4966748;28;20487;-66
2021/07/08 10:00:32;;;;;;;4.40;4.10;;;21.10;99.90;;;;;;4979550;28;20964;-65
2021/07/08 10:02:59;;;;;;;4.77;4.37;;;21.10;99.90;;;;;;4977718;28;20475;-62
2021/07/08 10:05:26;;;;;;;4.90;4.50;;;20.90;99.90;;;;;;4959681;28;20451;-61
2021/07/08 10:07:53;;;;;;;6.57;5.17;;;20.80;99.90;;;;;;4976436;28;20469;-61
2021/07/08 10:10:19;;;;;;;5.23;4.80;;;20.90;99.90;;;;;;4974438;28;20654;-62
2021/07/08 10:12:46;;;;;;;5.50;5.00;;;21.10;99.90;;;;;;4978800;28;20456;-62
2021/07/08 10:15:17;;;;;;;8.13;4.30;;;21.00;99.90;;;;;;4976499;28;20440;-61
2021/07/08 10:17:43;;;;;;;4.87;4.47;;;20.90;99.90;;;;;;4977621;28;20432;-61
2021/07/08 10:20:12;;;;;;;5.20;4.70;;;20.80;99.90;;;;;;4969572;28;21184;-62
2021/07/08 10:22:38;;;;;;;5.70;4.50;;;20.90;99.90;;;;;;4971426;28;20945;-63
2021/07/08 10:25:06;;;;;;;6.20;4.80;;;20.90;99.90;;;;;;4972639;28;20446;-62
2021/07/08 10:27:32;;;;;;;5.70;4.97;;;20.90;99.90;;;;;;4977066;28;20473;-61
2021/07/08 10:30:01;;;;;;;5.77;5.27;;;20.90;99.90;;;;;;4983691;28;20444;-63
2021/07/08 10:32:27;;;;;;;5.40;5.00;;;20.90;99.90;;;;;;4971734;28;20493;-62
2021/07/08 10:34:53;;;;;;;5.03;4.63;;;20.90;99.90;;;;;;4981604;28;20435;-62
2021/07/08 10:37:25;;;;;;;8.80;5.83;;;21.00;99.90;;;;;;4973506;28;20557;-62
2021/07/08 10:39:52;;;;;;;6.67;5.77;;;21.00;99.90;;;;;;4982288;28;20436;-60
2021/07/08 10:42:44;;;;;;;6.93;6.20;;;21.10;99.90;;;;;;4978684;28;20453;-67
2021/07/08 10:45:35;;;;;;;7.10;6.03;;;21.20;99.90;;;;;;4978736;28;20924;-67
2021/07/08 10:48:24;;;;;;;5.93;5.40;;;21.20;99.90;;;;;;4994226;28;20461;-68
2021/07/08 10:50:51;;;;;;;8.50;5.73;;;21.20;99.90;;;;;;4981762;28;20448;-68
2021/07/08 10:53:27;;;;;;;6.57;5.97;;;21.20;99.90;;;;;;4974323;28;20978;-67
2021/07/08 10:55:56;;;;;;;6.40;5.90;;;21.10;99.90;;;;;;4996783;28;20459;-67
2021/07/08 10:58:51;;;;;;;6.87;6.17;;;21.10;99.90;;;;;;4982794;28;20544;-67
2021/07/08 11:01:23;;;;;;;7.60;6.10;;;21.10;99.90;;;;;;4979954;28;20455;-67
2021/07/08 11:03:54;;;;;;;7.33;6.63;;;20.90;99.90;;;;;;4982594;28;20424;-67
2021/07/08 11:06:24;;;;;;;6.50;5.53;;;21.00;99.90;;;;;;4978841;28;20523;-67
2021/07/08 11:08:59;;;;;;;10.47;6.27;;;20.90;99.90;;;;;;4980483;28;20503;-67
2021/07/08 11:11:25;;;;;;;7.03;6.00;;;21.00;99.90;;;;;;4980791;28;20433;-68
2021/07/08 11:13:52;;;;;;;6.53;6.00;;;20.90;99.90;;;;;;4980835;28;20444;-68
2021/07/08 11:16:40;;;;;;;6.40;5.80;;;20.90;99.90;;;;;;4974559;28;20313;-68
2021/07/08 11:19:06;;;;;;;6.60;6.00;;;20.80;99.90;;;;;;4979946;28;20449;-68
2021/07/08 11:21:55;;;;;;;6.40;5.80;;;20.70;99.90;;;;;;4977370;28;20461;-68
2021/07/08 11:24:28;;;;;;;6.07;5.53;;;20.70;99.90;;;;;;4963479;28;20194;-68
2021/07/08 11:26:56;;;;;;;6.20;5.40;;;20.80;99.90;;;;;;4977623;28;20450;-69
2021/07/08 11:29:48;;;;;;;6.03;5.47;;;20.90;99.90;;;;;;4977355;28;21010;-68
2021/07/08 11:32:22;;;;;;;5.70;5.20;;;20.80;99.90;;;;;;4976179;28;20816;-69
2021/07/08 11:35:06;;;;;;;6.00;5.40;;;20.90;99.90;;;;;;4979543;28;20439;-67
2021/07/08 11:37:39;;;;;;;4.80;4.40;;;21.10;99.90;;;;;;4974815;28;20827;-62
2021/07/08 11:40:14;;;;;;;4.83;4.43;;;21.10;99.90;;;;;;4976447;28;20845;-63
2021/07/08 11:42:42;;;;;;;5.70;5.10;;;21.20;99.90;;;;;;4980655;28;20460;-63
2021/07/08 11:45:15;;;;;;;7.70;5.00;;;21.20;99.90;;;;;;4978332;28;20469;-62
2021/07/08 11:47:42;;;;;;;5.50;4.70;;;21.40;99.90;;;;;;4978514;28;20477;-61
2021/07/08 11:50:16;;;;;;;4.43;4.03;;;21.50;99.90;;;;;;4975806;28;20429;-62
2021/07/08 11:52:42;;;;;;;5.60;3.53;;;21.50;99.90;;;;;;4977170;28;20468;-65
2021/07/08 11:55:08;;;;;;;4.63;3.90;;;21.40;99.90;;;;;;4980508;28;20451;-64
2021/07/08 11:57:54;;;;;;;4.23;3.80;;;21.30;99.90;;;;;;4979897;28;20710;-65
2021/07/08 12:00:31;;;;;;;3.80;3.50;;;21.40;99.90;;;;;;4975615;28;20868;-69
2021/07/08 12:02:57;;;;;;;4.30;4.00;;;21.40;99.90;;;;;;4979849;28;20450;-67
2021/07/08 12:05:24;;;;;;;3.93;3.63;;;21.40;99.90;;;;;;4976618;28;20427;-64
2021/07/08 12:07:57;;;;;;;4.43;4.03;;;21.20;99.90;;;;;;4979006;28;20557;-65
2021/07/08 12:10:26;;;;;;;4.63;4.23;;;21.10;99.90;;;;;;4976938;28;20452;-64
2021/07/08 12:12:54;;;;;;;4.40;4.00;;;21.20;99.90;;;;;;4978272;28;20452;-68
2021/07/08 12:15:21;;;;;;;5.03;4.53;;;21.40;99.90;;;;;;4981233;28;20437;-67
2021/07/08 12:18:08;;;;;;;4.90;3.77;;;21.60;99.90;;;;;;4977818;28;21073;-68
2021/07/08 12:20:45;;;;;;;3.70;3.40;;;21.40;99.90;;;;;;4982500;28;20472;-68
2021/07/08 12:23:17;;;;;;;3.73;3.37;;;21.30;99.90;;;;;;4979933;28;20460;-66
2021/07/08 12:25:44;;;;;;;3.30;3.00;;;21.10;99.90;;;;;;4985776;28;20478;-64
2021/07/08 12:28:09;;;;;;;4.50;3.30;;;20.90;99.90;;;;;;4962053;28;20617;-64
2021/07/08 12:30:35;;;;;;;3.57;3.23;;;20.90;99.90;;;;;;4967197;28;20526;-63
2021/07/08 12:33:14;;;;;;;4.30;3.10;;;21.00;99.90;;;;;;4970224;28;20466;-65
2021/07/08 12:35:46;;;;;;;5.70;2.70;;;20.80;99.90;;;;;;4977986;28;20240;-67
2021/07/08 12:38:17;;;;;;;3.47;2.70;;;20.80;99.90;;;;;;4977857;28;20450;-64
2021/07/08 12:40:46;;;;;;;2.50;2.30;;;20.90;99.90;;;;;;4959959;28;20517;-61
2021/07/08 12:43:18;;;;;;;2.60;2.40;;;20.90;99.90;;;;;;4961546;28;20560;-66
2021/07/08 12:45:47;;;;;;;2.60;2.40;;;21.00;99.90;;;;;;4981667;28;20445;-64
2021/07/08 12:48:16;;;;;;;2.60;2.40;;;21.00;99.90;;;;;;4979143;28;20457;-63
2021/07/08 12:50:45;;;;;;;3.23;2.40;;;20.80;99.90;;;;;;4982444;28;20576;-67
2021/07/08 12:53:15;;;;;;;5.20;3.00;;;20.90;99.90;;;;;;4978320;28;20499;-65
2021/07/08 12:55:52;;;;;;;2.90;2.70;;;20.90;99.90;;;;;;4978214;28;20464;-68
2021/07/08 12:58:18;;;;;;;3.27;2.80;;;20.90;99.90;;;;;;4978488;28;20986;-64
2021/07/08 13:00:45;;;;;;;3.33;2.83;;;20.90;99.90;;;;;;4963764;28;20448;-65
2021/07/08 13:03:23;;;;;;;4.17;3.57;;;20.70;99.90;;;;;;4976105;28;20228;-65
2021/07/08 13:05:53;;;;;;;3.50;3.20;;;21.00;99.90;;;;;;4978299;28;20449;-65
2021/07/08 13:08:20;;;;;;;3.33;2.70;;;21.10;99.90;;;;;;4974690;28;21036;-66
2021/07/08 13:10:51;;;;;;;3.03;2.83;;;21.20;99.90;;;;;;4979550;28;20444;-63
2021/07/08 13:13:32;;;;;;;4.30;2.40;;;21.40;99.90;;;;;;4973497;28;20457;-66
2021/07/08 13:15:58;;;;;;;3.00;2.70;;;21.50;99.90;;;;;;4979028;28;20435;-64
2021/07/08 13:18:31;;;;;;;3.17;2.50;;;21.50;99.90;;;;;;4972339;28;20434;-65
2021/07/08 13:21:24;;;;;;;2.87;2.30;;;21.60;99.90;;;;;;4977583;28;20489;-63
2021/07/08 13:23:51;;;;;;;3.40;2.93;;;21.30;99.90;;;;;;4974348;28;20449;-64
2021/07/08 13:26:22;;;;;;;3.27;3.00;;;21.40;99.90;;;;;;4978151;28;20437;-63
2021/07/08 13:28:49;;;;;;;3.73;3.40;;;21.40;99.90;;;;;;4974206;28;20588;-65
2021/07/08 13:31:20;;;;;;;3.83;3.53;;;21.30;99.90;;;;;;4971266;28;20887;-64
2021/07/08 13:33:54;;;;;;;3.50;3.00;;;21.40;99.90;;;;;;4981477;28;20471;-66
2021/07/08 13:36:23;;;;;;;3.23;2.93;;;21.20;99.90;;;;;;4972376;28;20484;-64
2021/07/08 13:39:10;;;;;;;2.90;2.70;;;21.00;99.90;;;;;;4977730;28;20461;-63
2021/07/08 13:41:38;;;;;;;3.60;3.13;;;21.10;99.90;;;;;;4978968;28;20480;-64
2021/07/08 13:44:08;;;;;;;2.83;2.63;;;21.00;99.90;;;;;;4977134;28;20444;-65